Time;durP1;ratioP1;P1;durP2;ratioP2;P2;SDS_P1;SDS_P2;PMS_P1;PMS_P2;Temp;Humidity;BMP_temperature;BMP_pressure;BME280_temperature;BME280_humidity;BME280_pressure;Samples;Min_cycle;Max_cycle;Signal;HPM_P1;HPM_P2
2022/05/07 00:00:10;;;;;;;8.07;6.40;;;9.30;40.70;;;;;;5074086;28;20191;-69
2022/05/07 00:02:35;;;;;;;7.13;5.60;;;9.30;40.00;;;;;;5074899;28;20192;-69
2022/05/07 00:05:01;;;;;;;7.80;7.00;;;9.30;40.90;;;;;;5075443;28;20426;-69
2022/05/07 00:07:26;;;;;;;9.10;7.70;;;9.30;41.10;;;;;;5073599;28;20195;-70
2022/05/07 00:09:52;;;;;;;7.87;6.93;;;9.30;41.20;;;;;;5072920;28;20220;-69
2022/05/07 00:12:17;;;;;;;7.93;6.80;;;9.30;40.30;;;;;;5072856;28;20208;-70
2022/05/07 00:14:43;;;;;;;7.70;6.53;;;9.30;40.40;;;;;;5073164;28;20255;-70
2022/05/07 00:19:53;;;;;;;12.03;7.20;;;9.30;40.60;;;;;;5072895;28;20222;-70
2022/05/07 00:22:18;;;;;;;6.10;5.53;;;9.20;40.80;;;;;;5072986;28;20418;-70
2022/05/07 00:24:44;;;;;;;8.10;6.87;;;9.10;40.80;;;;;;5072995;28;20704;-70
2022/05/07 00:27:11;;;;;;;7.33;6.63;;;9.10;41.00;;;;;;5072713;28;20663;-70
2022/05/07 00:29:36;;;;;;;13.37;7.70;;;9.10;41.50;;;;;;5072569;28;20260;-70
2022/05/07 00:32:03;;;;;;;8.63;5.93;;;9.00;41.40;;;;;;5071208;28;20560;-70
2022/05/07 00:34:29;;;;;;;8.20;7.23;;;9.00;41.40;;;;;;5072433;28;20178;-70
2022/05/07 00:36:54;;;;;;;6.43;5.80;;;9.00;41.40;;;;;;5072573;28;20410;-70
2022/05/07 00:39:20;;;;;;;8.03;6.90;;;9.00;41.40;;;;;;5072158;28;20530;-70
2022/05/07 00:41:45;;;;;;;7.90;6.50;;;8.90;41.30;;;;;;5072468;28;20179;-70
2022/05/07 00:44:11;;;;;;;8.53;6.37;;;8.90;41.30;;;;;;5071640;28;20255;-69
2022/05/07 00:46:37;;;;;;;6.00;5.30;;;8.80;41.20;;;;;;5073206;28;20175;-70
2022/05/07 00:49:02;;;;;;;6.47;5.03;;;8.80;41.20;;;;;;5070853;28;20295;-70
2022/05/07 00:51:34;;;;;;;7.30;5.73;;;8.80;41.20;;;;;;5072248;28;20457;-70
2022/05/07 00:54:04;;;;;;;8.93;5.90;;;8.80;41.30;;;;;;5072417;28;20172;-70
2022/05/07 00:56:31;;;;;;;10.40;7.33;;;8.80;41.20;;;;;;5072242;28;20764;-70
2022/05/07 00:58:58;;;;;;;7.23;6.53;;;8.70;41.20;;;;;;5071755;28;20453;-70
2022/05/07 01:01:23;;;;;;;7.50;5.77;;;8.70;41.20;;;;;;5071882;28;20409;-70
2022/05/07 01:03:49;;;;;;;10.23;6.90;;;8.70;41.30;;;;;;5072083;28;20421;-69
2022/05/07 01:06:15;;;;;;;8.63;7.00;;;8.60;41.80;;;;;;5072072;28;20187;-70
2022/05/07 01:08:45;;;;;;;7.63;6.83;;;8.60;42.40;;;;;;5072137;28;20437;-70
2022/05/07 01:11:10;;;;;;;7.20;5.83;;;8.50;42.30;;;;;;5070542;28;20212;-70
2022/05/07 01:13:37;;;;;;;7.27;5.87;;;8.50;43.00;;;;;;5071609;28;21006;-69
2022/05/07 01:16:04;;;;;;;6.17;5.13;;;8.60;42.50;;;;;;5071809;28;20166;-70
2022/05/07 01:18:30;;;;;;;7.57;6.77;;;8.50;41.30;;;;;;5071249;28;20408;-69
2022/05/07 01:20:57;;;;;;;8.47;7.03;;;8.40;42.30;;;;;;5071940;28;20413;-69
2022/05/07 01:23:24;;;;;;;6.97;5.87;;;8.40;42.30;;;;;;5071734;28;20776;-70
2022/05/07 01:25:49;;;;;;;8.67;6.70;;;8.30;42.10;;;;;;5070412;28;20459;-69
2022/05/07 01:28:15;;;;;;;7.67;6.87;;;8.40;43.10;;;;;;5070702;28;20498;-69
2022/05/07 01:30:40;;;;;;;10.37;5.80;;;8.50;42.90;;;;;;5077896;28;20209;-69
2022/05/07 01:33:06;;;;;;;6.63;5.93;;;8.50;42.10;;;;;;5078254;28;20166;-69
2022/05/07 01:35:31;;;;;;;11.03;7.70;;;8.40;42.40;;;;;;5078359;28;20252;-68
2022/05/07 01:37:57;;;;;;;8.47;7.67;;;8.30;43.00;;;;;;5076716;28;20230;-70
2022/05/07 01:40:22;;;;;;;9.60;6.93;;;8.30;43.80;;;;;;5076965;28;20228;-70
2022/05/07 01:42:48;;;;;;;6.33;5.70;;;8.40;43.40;;;;;;5078169;28;20232;-70
2022/05/07 01:45:13;;;;;;;8.70;6.83;;;8.40;42.50;;;;;;5076907;28;20589;-70
2022/05/07 01:50:24;;;;;;;9.37;6.00;;;8.40;43.30;;;;;;5078401;28;20209;-70
2022/05/07 01:52:50;;;;;;;7.90;6.93;;;8.50;42.90;;;;;;5078306;28;20825;-70
2022/05/07 01:55:15;;;;;;;11.23;7.07;;;8.50;42.60;;;;;;5078215;28;20406;-70
2022/05/07 01:57:41;;;;;;;7.80;5.60;;;8.60;42.50;;;;;;5077759;28;20508;-70
2022/05/07 02:00:08;;;;;;;9.57;6.97;;;8.50;42.00;;;;;;5078146;28;20191;-70
2022/05/07 02:02:34;;;;;;;7.37;6.20;;;8.50;42.70;;;;;;5076722;28;20733;-70
2022/05/07 02:04:59;;;;;;;9.50;7.53;;;8.50;42.30;;;;;;5078160;28;20487;-70
2022/05/07 02:07:25;;;;;;;7.40;6.40;;;8.50;42.20;;;;;;5077872;28;20182;-70
2022/05/07 02:09:51;;;;;;;8.63;6.50;;;8.50;42.20;;;;;;5077978;28;20224;-70
2022/05/07 02:12:17;;;;;;;8.97;7.03;;;8.40;42.10;;;;;;5076472;28;20229;-70
2022/05/07 02:14:42;;;;;;;8.37;7.23;;;8.40;42.20;;;;;;5076636;28;20428;-71
2022/05/07 02:17:08;;;;;;;7.47;6.70;;;8.30;42.30;;;;;;5078156;28;20533;-69
2022/05/07 02:19:33;;;;;;;9.60;7.50;;;8.30;42.80;;;;;;5077553;28;20202;-69
2022/05/07 02:21:59;;;;;;;6.63;5.80;;;8.20;42.50;;;;;;5078274;28;20193;-69
2022/05/07 02:24:25;;;;;;;9.27;7.60;;;8.10;42.40;;;;;;5077838;28;20180;-70
2022/05/07 02:26:50;;;;;;;10.10;8.00;;;8.00;42.70;;;;;;5077787;28;20551;-70
2022/05/07 02:29:16;;;;;;;10.03;8.10;;;8.00;43.10;;;;;;5077509;28;20493;-70
2022/05/07 02:32:03;;;;;;;8.33;7.37;;;8.00;42.40;;;;;;5077768;28;20224;-69
2022/05/07 02:34:28;;;;;;;7.33;6.63;;;8.00;42.30;;;;;;5078057;28;20181;-69
2022/05/07 02:36:54;;;;;;;8.63;6.63;;;8.00;41.80;;;;;;5076439;28;20816;-68
2022/05/07 02:39:19;;;;;;;9.30;8.07;;;7.90;42.50;;;;;;5077654;28;20427;-70
2022/05/07 02:44:29;;;;;;;10.13;7.67;;;7.90;43.30;;;;;;5074664;28;20257;-70
2022/05/07 02:46:54;;;;;;;9.80;6.87;;;7.80;43.30;;;;;;5073204;28;20851;-70
2022/05/07 02:49:20;;;;;;;8.77;7.33;;;7.80;43.70;;;;;;5072878;28;20565;-69
2022/05/07 02:51:46;;;;;;;8.30;6.50;;;7.80;44.10;;;;;;5073123;28;20607;-70
2022/05/07 02:54:11;;;;;;;8.20;7.40;;;7.80;43.60;;;;;;5072985;28;20428;-70
2022/05/07 02:56:37;;;;;;;9.67;7.43;;;7.70;43.50;;;;;;5074255;28;20173;-69
2022/05/07 02:59:02;;;;;;;14.53;7.60;;;7.70;43.70;;;;;;5072649;28;20194;-69
2022/05/07 03:01:28;;;;;;;8.20;7.17;;;7.70;43.70;;;;;;5072914;28;20178;-69
2022/05/07 03:03:54;;;;;;;11.33;7.67;;;7.70;43.00;;;;;;5074166;28;20205;-69
2022/05/07 03:06:19;;;;;;;8.60;7.33;;;7.70;43.40;;;;;;5072885;28;20182;-69
2022/05/07 03:08:45;;;;;;;8.60;6.00;;;7.70;42.80;;;;;;5073888;28;20194;-69
2022/05/07 03:11:11;;;;;;;8.23;7.37;;;7.80;42.30;;;;;;5074053;28;20210;-68
2022/05/07 03:13:37;;;;;;;7.47;6.67;;;7.80;42.60;;;;;;5073921;28;20178;-70
2022/05/07 03:16:02;;;;;;;9.50;6.77;;;7.70;42.00;;;;;;5072733;28;20431;-69
2022/05/07 03:18:29;;;;;;;11.93;7.07;;;7.60;42.30;;;;;;5072201;28;20572;-69
2022/05/07 03:20:54;;;;;;;7.83;6.80;;;7.50;43.50;;;;;;5073689;28;20659;-69
2022/05/07 03:23:20;;;;;;;9.43;6.70;;;7.70;44.60;;;;;;5073866;28;20422;-69
2022/05/07 03:25:45;;;;;;;17.77;7.60;;;7.80;43.80;;;;;;5072466;28;20270;-69
2022/05/07 03:28:11;;;;;;;8.17;6.73;;;7.80;43.40;;;;;;5071778;28;20367;-70
2022/05/07 03:30:36;;;;;;;10.00;8.07;;;7.80;43.60;;;;;;5073177;28;20455;-69
2022/05/07 03:33:02;;;;;;;22.53;7.63;;;7.80;43.90;;;;;;5072478;28;20180;-70
2022/05/07 03:35:29;;;;;;;9.03;7.87;;;7.90;43.40;;;;;;5073593;28;20205;-69
2022/05/07 03:37:55;;;;;;;10.33;9.33;;;7.70;42.90;;;;;;5073317;28;20178;-70
2022/05/07 03:40:21;;;;;;;10.10;7.43;;;7.60;44.10;;;;;;5072090;28;20444;-69
2022/05/07 03:42:46;;;;;;;9.63;8.63;;;7.50;45.10;;;;;;5073336;28;20189;-69
2022/05/07 03:45:12;;;;;;;8.90;6.23;;;7.50;44.00;;;;;;5073381;28;20415;-70
2022/05/07 03:47:39;;;;;;;15.13;8.00;;;7.50;44.40;;;;;;5073124;28;20169;-69
2022/05/07 03:50:05;;;;;;;9.43;7.73;;;7.50;43.60;;;;;;5071856;28;20351;-69
2022/05/07 03:55:16;;;;;;;18.90;8.63;;;7.50;44.20;;;;;;5073220;28;20518;-70
2022/05/07 03:57:42;;;;;;;11.70;7.57;;;7.50;43.80;;;;;;5071687;28;20833;-70
2022/05/07 04:00:08;;;;;;;8.80;7.83;;;7.50;43.30;;;;;;5073326;28;20444;-70
2022/05/07 04:02:35;;;;;;;7.50;6.70;;;7.50;44.10;;;;;;5071937;28;20178;-69
2022/05/07 04:05:01;;;;;;;11.10;7.33;;;7.50;43.80;;;;;;5071933;28;20447;-69
2022/05/07 04:07:28;;;;;;;10.00;8.33;;;7.50;43.60;;;;;;5072785;28;20458;-70
2022/05/07 04:09:55;;;;;;;10.50;8.10;;;7.50;42.70;;;;;;5072780;28;20429;-70
2022/05/07 04:12:21;;;;;;;8.57;7.33;;;7.50;43.60;;;;;;5072790;28;20464;-69
2022/05/07 04:14:46;;;;;;;9.87;7.30;;;7.50;43.10;;;;;;5072822;28;20833;-68
2022/05/07 04:17:12;;;;;;;8.57;7.43;;;7.50;43.30;;;;;;5072584;28;20420;-69
2022/05/07 04:19:38;;;;;;;9.17;6.60;;;7.20;44.60;;;;;;5071929;28;20221;-69
2022/05/07 04:22:03;;;;;;;9.67;8.17;;;7.30;45.10;;;;;;5072311;28;20541;-69
2022/05/07 04:24:29;;;;;;;9.50;7.30;;;7.30;44.80;;;;;;5072546;28;20176;-69
2022/05/07 04:26:55;;;;;;;11.50;8.20;;;7.40;44.60;;;;;;5072739;28;20587;-69
2022/05/07 04:29:21;;;;;;;11.67;8.40;;;7.40;44.50;;;;;;5072368;28;20424;-69
2022/05/07 04:31:46;;;;;;;11.37;8.10;;;7.50;44.40;;;;;;5072210;28;20229;-69
2022/05/07 04:34:12;;;;;;;10.30;7.70;;;7.40;44.50;;;;;;5072480;28;20202;-70
2022/05/07 04:36:38;;;;;;;9.60;7.37;;;7.50;44.60;;;;;;5072408;28;20181;-69
2022/05/07 04:39:03;;;;;;;9.70;7.67;;;7.40;45.20;;;;;;5072364;28;20201;-68
2022/05/07 04:41:29;;;;;;;11.13;8.27;;;7.50;45.30;;;;;;5072535;28;20432;-68
2022/05/07 04:43:54;;;;;;;9.33;6.80;;;7.60;45.40;;;;;;5071120;28;20181;-69
2022/05/07 04:46:20;;;;;;;10.53;8.03;;;7.70;44.80;;;;;;5071537;28;20177;-69
2022/05/07 04:48:46;;;;;;;11.20;8.57;;;7.80;44.10;;;;;;5071977;28;20197;-69
2022/05/07 04:51:12;;;;;;;9.40;7.23;;;7.80;43.30;;;;;;5072219;28;20752;-69
2022/05/07 04:53:38;;;;;;;8.50;7.60;;;7.80;43.30;;;;;;5072193;28;20495;-67
2022/05/07 04:56:04;;;;;;;9.40;7.20;;;7.90;43.30;;;;;;5072248;28;20474;-69
2022/05/07 04:58:29;;;;;;;7.17;6.43;;;8.00;43.50;;;;;;5071827;28;20432;-69
2022/05/07 05:00:55;;;;;;;8.83;7.97;;;8.10;43.30;;;;;;5072014;28;20175;-70
2022/05/07 05:03:20;;;;;;;9.20;7.07;;;8.20;42.70;;;;;;5071628;28;20602;-70
2022/05/07 05:05:46;;;;;;;8.63;6.70;;;8.20;42.20;;;;;;5071012;28;20178;-69
2022/05/07 05:08:11;;;;;;;6.67;6.00;;;8.30;41.20;;;;;;5071869;28;20249;-69
2022/05/07 05:10:37;;;;;;;5.50;5.00;;;8.40;42.10;;;;;;5071793;28;20201;-70
2022/05/07 05:13:02;;;;;;;6.83;5.80;;;8.80;43.80;;;;;;5071779;28;20208;-69
2022/05/07 05:15:28;;;;;;;10.23;7.60;;;9.40;43.50;;;;;;5071986;28;20231;-70
2022/05/07 05:17:54;;;;;;;8.07;7.40;;;10.10;41.40;;;;;;5071766;28;20170;-70
2022/05/07 05:20:19;;;;;;;9.00;6.67;;;11.00;42.20;;;;;;5070907;28;20808;-70
2022/05/07 05:22:49;;;;;;;7.00;5.53;;;11.90;36.30;;;;;;5070753;28;20180;-70
2022/05/07 05:25:15;;;;;;;6.90;6.37;;;12.80;34.90;;;;;;5071984;28;20181;-68
2022/05/07 05:27:41;;;;;;;7.63;7.03;;;13.60;28.70;;;;;;5071447;28;20915;-68
2022/05/07 05:30:07;;;;;;;11.63;10.63;;;14.20;28.20;;;;;;5071688;28;20434;-69
2022/05/07 05:32:33;;;;;;;10.57;9.83;;;14.90;24.20;;;;;;5071739;28;20415;-66
2022/05/07 05:34:58;;;;;;;12.17;11.27;;;15.60;23.80;;;;;;5071613;28;20416;-67
2022/05/07 05:37:24;;;;;;;12.00;11.20;;;16.30;20.80;;;;;;5071504;28;20233;-67
2022/05/07 05:39:49;;;;;;;11.97;11.20;;;16.90;19.30;;;;;;5071615;28;20189;-66
2022/05/07 05:42:15;;;;;;;13.00;12.20;;;17.30;19.10;;;;;;5071594;28;20209;-67
2022/05/07 05:44:42;;;;;;;14.10;13.30;;;17.80;18.10;;;;;;5071720;28;20174;-67
2022/05/07 05:47:09;;;;;;;14.73;13.73;;;18.40;18.20;;;;;;5071572;28;20174;-66
2022/05/07 05:49:35;;;;;;;16.33;15.43;;;18.90;15.50;;;;;;5071457;28;20440;-67
2022/05/07 05:52:02;;;;;;;15.87;15.10;;;19.10;15.00;;;;;;5071558;28;20509;-67
2022/05/07 05:54:29;;;;;;;15.13;14.43;;;19.40;14.60;;;;;;5071460;28;20909;-67
2022/05/07 05:56:54;;;;;;;15.63;14.80;;;19.70;13.60;;;;;;5071360;28;20413;-67
2022/05/07 05:59:20;;;;;;;15.87;15.07;;;20.20;14.50;;;;;;5069905;28;20967;-67
2022/05/07 06:01:46;;;;;;;16.70;15.60;;;20.60;12.60;;;;;;5071367;28;20178;-67
2022/05/07 06:04:11;;;;;;;16.00;15.20;;;21.20;12.90;;;;;;5071632;28;20193;-67
2022/05/07 06:06:37;;;;;;;18.00;17.10;;;21.80;11.30;;;;;;5071331;28;20933;-67
2022/05/07 06:09:02;;;;;;;16.93;16.10;;;22.20;11.10;;;;;;5071164;28;20202;-67
2022/05/07 06:11:28;;;;;;;16.43;15.53;;;22.50;10.20;;;;;;5071393;28;20251;-67
2022/05/07 06:13:54;;;;;;;16.60;15.80;;;22.80;9.50;;;;;;5071114;28;20174;-68
2022/05/07 06:16:19;;;;;;;18.33;17.30;;;22.80;8.70;;;;;;5074281;28;20184;-66
2022/05/07 06:18:45;;;;;;;17.03;16.13;;;22.50;9.30;;;;;;5074625;28;20721;-67
2022/05/07 06:21:10;;;;;;;18.63;17.63;;;22.30;9.20;;;;;;5075193;28;20620;-67
2022/05/07 06:23:36;;;;;;;17.40;16.50;;;21.90;8.30;;;;;;5075071;28;20698;-66
2022/05/07 06:28:45;;;;;;;16.70;15.97;;;20.90;10.50;;;;;;5058295;28;20305;-66
2022/05/07 06:31:11;;;;;;;18.10;17.00;;;20.70;10.70;;;;;;5054534;28;20908;-66
2022/05/07 06:33:39;;;;;;;18.27;17.27;;;20.60;11.20;;;;;;5059920;28;20186;-67
2022/05/07 06:36:08;;;;;;;18.00;17.00;;;20.20;11.10;;;;;;5074818;28;20170;-66
2022/05/07 06:38:34;;;;;;;17.90;16.50;;;20.20;11.00;;;;;;5074267;28;20408;-66
2022/05/07 06:41:04;;;;;;;17.47;16.37;;;20.00;10.10;;;;;;5074711;28;21194;-66
2022/05/07 06:43:31;;;;;;;17.20;16.10;;;18.50;12.00;;;;;;5074619;28;20412;-67
2022/05/07 06:46:00;;;;;;;17.90;16.70;;;18.40;14.10;;;;;;5074448;28;20483;-66
2022/05/07 06:48:26;;;;;;;18.67;17.40;;;17.60;13.70;;;;;;5074302;28;20469;-66
2022/05/07 06:50:54;;;;;;;17.80;16.80;;;17.20;15.00;;;;;;5072810;28;20466;-65
2022/05/07 06:53:19;;;;;;;15.20;14.30;;;16.90;15.80;;;;;;5074272;28;20416;-68
2022/05/07 06:55:54;;;;;;;15.80;14.60;;;16.30;16.60;;;;;;5074856;28;20416;-67
2022/05/07 06:58:25;;;;;;;17.00;15.90;;;15.40;18.70;;;;;;5073989;28;20327;-67
2022/05/07 07:00:51;;;;;;;16.23;15.03;;;16.20;18.20;;;;;;5074446;28;20944;-66
2022/05/07 07:03:16;;;;;;;16.00;15.00;;;16.40;17.30;;;;;;5074212;28;20427;-67
2022/05/07 07:05:43;;;;;;;19.27;17.93;;;17.20;17.30;;;;;;5074178;28;20408;-67
2022/05/07 07:08:11;;;;;;;17.10;16.10;;;17.90;16.00;;;;;;5072594;28;20552;-67
2022/05/07 07:10:36;;;;;;;18.77;17.67;;;19.40;15.40;;;;;;5072872;28;20996;-67
2022/05/07 07:13:02;;;;;;;18.77;17.10;;;20.10;12.20;;;;;;5074067;28;20436;-68
2022/05/07 07:15:27;;;;;;;18.17;17.17;;;21.10;12.20;;;;;;5074103;28;20252;-66
2022/05/07 07:17:53;;;;;;;18.43;17.43;;;22.10;10.70;;;;;;5073695;28;20181;-66
2022/05/07 07:20:18;;;;;;;18.10;16.80;;;22.00;10.00;;;;;;5073811;28;20263;-67
2022/05/07 07:22:46;;;;;;;16.43;15.57;;;23.00;9.70;;;;;;5073381;28;20178;-66
2022/05/07 07:25:11;;;;;;;16.70;15.70;;;23.70;9.20;;;;;;5074025;28;20733;-67
2022/05/07 07:27:37;;;;;;;17.17;16.27;;;24.60;7.50;;;;;;5073018;28;20447;-67
2022/05/07 07:30:03;;;;;;;16.70;15.90;;;25.00;6.40;;;;;;5072486;28;20197;-67
2022/05/07 07:32:29;;;;;;;18.00;17.10;;;25.50;6.40;;;;;;5073685;28;20255;-69
2022/05/07 07:34:54;;;;;;;17.23;16.30;;;25.60;6.50;;;;;;5073565;28;20413;-69
2022/05/07 07:37:20;;;;;;;18.37;17.00;;;25.90;4.90;;;;;;5073289;28;20201;-69
2022/05/07 07:39:45;;;;;;;18.87;17.73;;;26.30;5.30;;;;;;5074140;28;20274;-69
2022/05/07 07:42:12;;;;;;;18.87;17.87;;;26.70;5.00;;;;;;5073585;28;20201;-70
2022/05/07 07:44:37;;;;;;;18.00;17.20;;;26.80;4.00;;;;;;5073506;28;20186;-70
2022/05/07 07:49:48;;;;;;;18.20;17.30;;;27.30;3.50;;;;;;5073188;28;20255;-70
2022/05/07 07:52:15;;;;;;;17.77;16.80;;;24.90;5.20;;;;;;5073334;28;20459;-69
2022/05/07 07:54:41;;;;;;;19.17;18.00;;;25.20;4.30;;;;;;5073228;28;20178;-69
2022/05/07 07:57:06;;;;;;;18.47;17.30;;;24.50;4.70;;;;;;5073479;28;20430;-69
2022/05/07 07:59:32;;;;;;;18.63;17.60;;;25.10;4.40;;;;;;5072736;28;20194;-70
2022/05/07 08:01:57;;;;;;;19.10;18.10;;;25.00;4.50;;;;;;5073015;28;20177;-69
2022/05/07 08:04:25;;;;;;;20.27;19.17;;;24.50;4.00;;;;;;5072310;28;20257;-69
2022/05/07 08:11:40;;;;;;;19.83;18.50;;;24.60;4.60;;;;;;5072863;28;20213;-69
2022/05/07 08:12:20;;;;;;;19.07;18.07;;;24.50;4.20;;;;;;5053991;28;20471;-68
2022/05/07 08:14:46;;;;;;;19.00;18.00;;;23.50;5.00;;;;;;5050130;28;20425;-69
2022/05/07 08:17:13;;;;;;;18.30;17.30;;;23.10;6.10;;;;;;5048323;28;20555;-69
2022/05/07 08:19:39;;;;;;;18.10;17.03;;;23.30;6.20;;;;;;5048812;28;20253;-69
2022/05/07 08:22:05;;;;;;;17.70;16.80;;;23.40;6.30;;;;;;5058789;28;20452;-69
2022/05/07 08:24:31;;;;;;;17.57;16.77;;;23.50;5.90;;;;;;5068384;28;20303;-69
2022/05/07 08:26:56;;;;;;;18.07;17.07;;;22.50;6.30;;;;;;5067249;28;20888;-69
2022/05/07 08:29:23;;;;;;;19.30;18.20;;;21.90;6.20;;;;;;5068415;28;20261;-70
2022/05/07 08:31:50;;;;;;;19.43;18.43;;;21.10;8.30;;;;;;5068024;28;20565;-70
2022/05/07 08:34:16;;;;;;;18.87;17.33;;;21.40;8.50;;;;;;5068819;28;20768;-67
2022/05/07 08:36:41;;;;;;;17.80;16.90;;;20.60;8.00;;;;;;5060086;28;20463;-70
2022/05/07 08:39:08;;;;;;;18.70;17.60;;;20.50;9.40;;;;;;5048130;28;20445;-70
2022/05/07 08:41:36;;;;;;;18.87;17.87;;;20.40;10.80;;;;;;5064352;28;20546;-70
2022/05/07 08:44:02;;;;;;;16.73;15.80;;;20.50;9.90;;;;;;5052098;28;20973;-72
2022/05/07 08:46:27;;;;;;;18.10;16.90;;;19.70;11.50;;;;;;5047963;28;20405;-70
2022/05/07 08:48:54;;;;;;;18.40;17.43;;;19.90;11.50;;;;;;5051304;28;20456;-68
2022/05/07 08:51:21;;;;;;;17.73;16.63;;;19.00;12.10;;;;;;5071989;28;20212;-69
2022/05/07 08:53:49;;;;;;;18.23;16.90;;;18.90;13.30;;;;;;5072099;28;20448;-70
2022/05/07 08:56:16;;;;;;;18.23;17.10;;;19.30;12.70;;;;;;5057307;28;20428;-70
2022/05/07 08:58:53;;;;;;;18.90;17.40;;;19.20;12.10;;;;;;5052513;28;20538;-70
2022/05/07 09:01:19;;;;;;;17.47;16.50;;;19.20;12.20;;;;;;5052299;28;20412;-70
2022/05/07 09:03:47;;;;;;;16.07;15.07;;;19.00;12.80;;;;;;5053889;28;20528;-70
2022/05/07 09:06:15;;;;;;;18.73;17.43;;;19.10;13.50;;;;;;5072108;28;20439;-70
2022/05/07 09:08:41;;;;;;;16.37;15.57;;;19.10;13.80;;;;;;5070179;28;20451;-70
2022/05/07 09:11:06;;;;;;;16.57;15.33;;;18.20;14.50;;;;;;5071892;28;20466;-70
2022/05/07 09:13:35;;;;;;;16.87;15.70;;;17.70;15.50;;;;;;5071856;28;20177;-70
2022/05/07 09:16:02;;;;;;;16.43;15.23;;;18.00;15.20;;;;;;5071588;28;20174;-71
2022/05/07 09:18:31;;;;;;;16.53;15.33;;;18.20;15.30;;;;;;5069913;28;20420;-70
2022/05/07 09:21:26;;;;;;;16.37;15.13;;;17.50;16.40;;;;;;5070547;28;20435;-71
2022/05/07 09:23:58;;;;;;;16.97;15.87;;;17.10;17.50;;;;;;5070556;28;20438;-69
2022/05/07 09:26:27;;;;;;;19.30;18.00;;;17.50;17.00;;;;;;5070464;28;20538;-72
2022/05/07 09:28:53;;;;;;;16.40;15.20;;;17.50;16.10;;;;;;5070981;28;20451;-70
2022/05/07 09:31:23;;;;;;;16.93;15.90;;;17.70;16.60;;;;;;5068402;28;20460;-69
2022/05/07 09:33:49;;;;;;;18.53;16.87;;;17.70;16.20;;;;;;5051709;28;20428;-70
2022/05/07 09:36:14;;;;;;;16.37;15.27;;;17.20;16.80;;;;;;5051449;28;20413;-69
2022/05/07 09:38:40;;;;;;;17.20;15.70;;;17.50;16.80;;;;;;5051546;28;20198;-69
2022/05/07 09:41:06;;;;;;;17.10;15.90;;;17.30;16.10;;;;;;5063966;28;20220;-69
2022/05/07 09:43:32;;;;;;;16.47;15.37;;;17.40;17.10;;;;;;5071690;28;20178;-69
2022/05/07 09:45:58;;;;;;;18.00;16.50;;;17.50;16.80;;;;;;5071563;28;20201;-69
2022/05/07 09:48:24;;;;;;;16.10;14.90;;;17.80;17.30;;;;;;5071190;28;20894;-69
2022/05/07 09:50:50;;;;;;;15.53;14.53;;;17.50;14.90;;;;;;5073461;28;20210;-69
2022/05/07 09:58:49;;;;;;;16.70;15.60;;;17.90;14.50;;;;;;5075549;28;20489;-70
2022/05/07 10:01:20;;;;;;;17.40;16.30;;;17.70;13.90;;;;;;5075407;28;20444;-68
2022/05/07 10:03:50;;;;;;;15.50;14.40;;;17.50;14.80;;;;;;5074014;28;20412;-70
2022/05/07 10:06:38;;;;;;;18.17;17.07;;;17.90;14.70;;;;;;5075142;28;20521;-69
2022/05/07 10:09:33;;;;;;;16.80;15.33;;;18.10;13.60;;;;;;5054612;28;20436;-69
2022/05/07 10:12:00;;;;;;;17.57;16.23;;;17.70;14.00;;;;;;5075274;28;20543;-69
2022/05/07 10:14:31;;;;;;;17.43;16.23;;;17.90;13.40;;;;;;5074025;28;20425;-69
2022/05/07 10:16:57;;;;;;;16.00;15.00;;;18.00;13.90;;;;;;5074900;28;20817;-69
2022/05/07 10:19:43;;;;;;;15.13;14.33;;;18.20;13.10;;;;;;5095721;22;20549;-68
2022/05/07 10:22:35;;;;;;;14.33;13.63;;;18.40;12.50;;;;;;5073694;28;20474;-69
2022/05/07 10:25:12;;;;;;;14.87;14.07;;;18.40;12.60;;;;;;5073126;28;20432;-68
2022/05/07 10:27:42;;;;;;;13.73;12.93;;;18.60;10.50;;;;;;5074683;28;20404;-69
2022/05/07 10:30:09;;;;;;;15.77;14.30;;;19.00;10.20;;;;;;5074743;28;20452;-69
2022/05/07 10:32:57;;;;;;;14.37;13.60;;;19.20;10.70;;;;;;5074577;28;20578;-69
2022/05/07 10:35:42;;;;;;;15.40;14.60;;;19.60;11.00;;;;;;5073614;28;20428;-69
2022/05/07 10:38:09;;;;;;;15.17;14.27;;;19.80;9.30;;;;;;5074596;28;20495;-69
2022/05/07 10:40:35;;;;;;;14.93;14.23;;;19.60;8.50;;;;;;5073121;28;20871;-70
2022/05/07 10:43:00;;;;;;;15.80;14.80;;;19.80;8.50;;;;;;5075064;28;20471;-70
2022/05/07 10:45:29;;;;;;;15.20;14.30;;;19.80;6.30;;;;;;5073286;28;20436;-69
2022/05/07 10:47:55;;;;;;;15.27;14.30;;;19.90;6.30;;;;;;5074875;28;20181;-70
2022/05/07 10:50:22;;;;;;;14.10;13.40;;;19.70;7.40;;;;;;5074504;28;20436;-69
2022/05/07 10:52:57;;;;;;;15.70;14.80;;;19.80;8.20;;;;;;5074396;28;20455;-70
2022/05/07 10:55:25;;;;;;;15.90;14.87;;;19.50;7.20;;;;;;5074580;28;20400;-69
2022/05/07 10:57:52;;;;;;;14.93;14.13;;;19.70;7.30;;;;;;5074591;28;20447;-70
2022/05/07 11:00:17;;;;;;;14.47;13.53;;;19.80;7.40;;;;;;5074313;28;20431;-69
2022/05/07 11:02:45;;;;;;;14.40;13.70;;;19.60;7.30;;;;;;5072805;28;20909;-69
2022/05/07 11:05:14;;;;;;;15.27;14.37;;;19.60;7.30;;;;;;5074336;28;20177;-70
2022/05/07 11:07:41;;;;;;;15.73;14.93;;;19.80;7.50;;;;;;5074570;28;20411;-70
2022/05/07 11:10:07;;;;;;;15.33;14.53;;;19.90;7.30;;;;;;5074596;28;20493;-69
2022/05/07 11:12:35;;;;;;;15.47;14.77;;;20.20;7.70;;;;;;5073034;28;20463;-70
2022/05/07 11:15:02;;;;;;;16.70;15.83;;;20.50;7.40;;;;;;5072266;28;20424;-68
2022/05/07 11:17:35;;;;;;;16.00;14.97;;;20.80;5.70;;;;;;5071643;28;20464;-68
2022/05/07 11:20:02;;;;;;;17.47;16.37;;;21.20;5.30;;;;;;5053558;28;20552;-67
2022/05/07 11:22:31;;;;;;;15.93;15.03;;;21.20;5.50;;;;;;5063206;28;20748;-68
2022/05/07 11:25:01;;;;;;;14.80;14.03;;;21.00;5.60;;;;;;5073073;28;20523;-68
2022/05/07 11:27:32;;;;;;;16.87;15.93;;;21.40;5.60;;;;;;5073830;28;20415;-67
2022/05/07 11:29:59;;;;;;;18.40;17.40;;;21.80;4.70;;;;;;5073498;28;20440;-68
2022/05/07 11:32:38;;;;;;;17.03;15.93;;;21.90;4.20;;;;;;5073669;28;20463;-68
2022/05/07 11:35:04;;;;;;;16.97;15.83;;;21.60;4.80;;;;;;5072652;28;20432;-68
2022/05/07 11:37:38;;;;;;;17.17;16.27;;;20.80;5.60;;;;;;5073777;28;20420;-67
2022/05/07 11:40:04;;;;;;;15.90;15.07;;;20.70;6.80;;;;;;5073927;28;20526;-68
2022/05/07 11:42:30;;;;;;;16.90;15.80;;;20.70;6.40;;;;;;5073613;28;20861;-68
2022/05/07 11:47:54;;;;;;;16.40;15.40;;;19.60;7.30;;;;;;5073856;28;20189;-68
2022/05/07 11:50:28;;;;;;;16.27;15.57;;;20.20;7.70;;;;;;5073857;28;20431;-67
2022/05/07 11:52:54;;;;;;;16.50;15.63;;;20.40;6.60;;;;;;5073799;28;20408;-67
2022/05/07 11:55:38;;;;;;;15.97;15.07;;;19.90;6.90;;;;;;5072611;28;20416;-68
2022/05/07 11:58:21;;;;;;;14.97;14.30;;;19.80;7.40;;;;;;5073213;28;20415;-67
2022/05/07 12:00:51;;;;;;;14.03;13.43;;;19.70;6.50;;;;;;5073807;28;20838;-66
2022/05/07 12:03:18;;;;;;;16.37;15.40;;;19.90;6.10;;;;;;5073123;28;20908;-67
2022/05/07 12:05:45;;;;;;;14.67;14.07;;;20.40;5.50;;;;;;5074555;28;20412;-68
2022/05/07 12:08:16;;;;;;;15.17;14.57;;;20.70;5.00;;;;;;5073824;28;20412;-68
2022/05/07 12:10:46;;;;;;;15.73;14.93;;;20.90;4.80;;;;;;5073341;28;20480;-69
2022/05/07 12:13:17;;;;;;;16.03;15.13;;;21.20;4.20;;;;;;5073461;28;20419;-70
2022/05/07 12:18:27;;;;;;;16.90;16.17;;;21.70;3.40;;;;;;5079107;28;20412;-70
2022/05/07 12:20:54;;;;;;;16.07;15.37;;;21.70;2.70;;;;;;5072996;28;20444;-70
2022/05/07 12:31:32;;;;;;;15.77;15.07;;;21.60;2.30;;;;;;5050655;28;20503;-67
2022/05/07 12:33:58;;;;;;;18.20;16.27;;;21.20;2.70;;;;;;5061564;28;20424;-70
2022/05/07 12:36:23;;;;;;;17.03;16.13;;;21.10;3.10;;;;;;5064819;28;20187;-68
2022/05/07 12:38:49;;;;;;;16.60;15.90;;;21.50;4.10;;;;;;5046856;28;20269;-70
2022/05/07 12:41:14;;;;;;;16.07;15.30;;;21.70;2.80;;;;;;5048990;28;20179;-69
2022/05/07 12:43:40;;;;;;;15.40;14.70;;;21.20;2.30;;;;;;5065699;28;20677;-68
2022/05/07 12:46:06;;;;;;;16.20;15.50;;;20.60;3.60;;;;;;5063694;28;20197;-69
2022/05/07 12:48:32;;;;;;;17.10;16.07;;;20.40;3.20;;;;;;5047289;28;20190;-69
2022/05/07 12:50:58;;;;;;;15.73;15.03;;;20.60;3.20;;;;;;5047085;28;20260;-68
2022/05/07 12:53:24;;;;;;;16.03;15.33;;;20.30;3.10;;;;;;5048294;28;20425;-68
2022/05/07 12:55:49;;;;;;;14.23;13.67;;;20.30;3.40;;;;;;5049108;28;20421;-68
2022/05/07 12:58:15;;;;;;;15.00;14.30;;;20.60;3.70;;;;;;5064682;28;20458;-68
2022/05/07 13:00:41;;;;;;;14.97;14.30;;;20.40;2.40;;;;;;5067994;28;20312;-68
2022/05/07 13:03:08;;;;;;;15.50;14.80;;;20.70;2.80;;;;;;5068645;28;20201;-68
2022/05/07 13:05:34;;;;;;;14.90;14.23;;;20.50;3.30;;;;;;5068094;28;20435;-68
2022/05/07 13:08:01;;;;;;;15.23;14.50;;;20.10;3.00;;;;;;5067714;28;20875;-68
2022/05/07 13:10:27;;;;;;;15.20;14.60;;;20.30;3.10;;;;;;5068609;28;20486;-68
2022/05/07 13:12:53;;;;;;;15.43;14.63;;;20.50;3.30;;;;;;5066577;28;20893;-67
2022/05/07 13:15:19;;;;;;;15.80;14.80;;;20.60;2.60;;;;;;5067550;28;20511;-72
2022/05/07 13:17:44;;;;;;;16.77;15.80;;;20.70;3.20;;;;;;5066743;28;20231;-73